Skip Navigation LinksHome page > Weather > Current weather Skip Navigation Links

Current Weather

Ndjamena, Chad

For information only: do not use for flight planning or navigation.
Latest weather
Observation time Wednesday, August 27, 2014 9:00 AM WAT
Local time Wednesday, August 27, 2014 10:06 AM WAT
Flight conditions Visual Meteorological Conditions
Winds
Wind direction West (280°)
Winds variable from 250° to 310°
Wind speed 7 mph
Visibility 6.2 mi.
Sky condition
Ceiling 13,000 ft. broken clouds
Cloud layer few clouds 2,600 ft.
Cloud layer broken clouds 13,000 ft.
Temperature 79°F
Dewpoint 75°F
Altimeter 29.94 in.Hg
Derived measurements
Relative humidity 89%
Heat index 79°F
Density altitude 1940 ft.
Remarks
No significant changes expected in the next two hours.
METAR FTTJ 270800Z 28006KT 250V310 9999 FEW026 BKN130 26/24 Q1014 NOSIG

Settings

Location code

InnerDrive.Weather 4.0.5341.0 Release CLR 4.0.30319.34014
Copyright ©2014 Inner Drive Technology. All rights reserved. Portions Copyright ©1986-2014 David Braverman.

Find weather

Site navigation


Skip Navigation Links

Place info

Page info

PayPal - The safer, easier way to pay online!

Return home.

Copyright ©2014 Inner Drive Technology. Purveyors of fine, hand-crafted computer software. Page printed 2014-08-27T09:06:09 UTC.